Time;durP1;ratioP1;P1;durP2;ratioP2;P2;SDS_P1;SDS_P2;PMS_P1;PMS_P2;Temp;Humidity;BMP_temperature;BMP_pressure;BME280_temperature;BME280_humidity;BME280_pressure;Samples;Min_cycle;Max_cycle;Signal;HPM_P1;HPM_P2
2023/05/30 00:00:54;;;;;;;3.77;3.47;;;16.90;99.90;;;;;;4992732;28;20235;-64
2023/05/30 00:03:21;;;;;;;4.23;3.70;;;16.80;99.90;;;;;;4998782;28;20204;-67
2023/05/30 00:05:48;;;;;;;6.17;4.30;;;16.70;99.90;;;;;;4992033;28;20204;-62
2023/05/30 00:08:15;;;;;;;9.83;3.83;;;16.60;99.90;;;;;;4996035;28;20209;-57
2023/05/30 00:10:43;;;;;;;5.27;4.90;;;16.60;99.90;;;;;;5013414;23;20275;-60
2023/05/30 00:13:10;;;;;;;5.70;4.37;;;16.50;99.90;;;;;;4989021;28;20208;-67
2023/05/30 00:15:37;;;;;;;3.93;3.63;;;16.50;99.90;;;;;;4990849;28;20207;-62
2023/05/30 00:18:05;;;;;;;3.97;3.67;;;16.50;99.90;;;;;;4990173;28;20278;-67
2023/05/30 00:20:33;;;;;;;4.70;4.30;;;16.60;99.90;;;;;;4982522;28;20251;-62
2023/05/30 00:23:00;;;;;;;5.57;4.90;;;16.50;99.90;;;;;;4982885;28;20200;-53
2023/05/30 00:25:27;;;;;;;5.03;3.27;;;16.40;99.90;;;;;;4988168;28;20199;-57
2023/05/30 00:27:55;;;;;;;4.73;4.33;;;16.30;99.90;;;;;;4984560;28;20207;-58
2023/05/30 00:30:23;;;;;;;4.60;4.20;;;16.10;99.90;;;;;;4988470;28;20211;-58
2023/05/30 00:32:50;;;;;;;5.07;4.67;;;16.10;99.90;;;;;;4988599;28;20295;-58
2023/05/30 00:35:17;;;;;;;5.63;3.67;;;16.10;99.90;;;;;;4983889;28;20258;-58
2023/05/30 00:37:44;;;;;;;6.50;4.57;;;16.00;99.90;;;;;;4990823;28;20282;-58
2023/05/30 00:40:11;;;;;;;4.47;4.07;;;15.90;99.90;;;;;;4990550;28;20286;-59
2023/05/30 00:42:38;;;;;;;5.57;4.23;;;15.90;99.90;;;;;;4992693;28;20851;-57
2023/05/30 00:45:08;;;;;;;4.20;3.87;;;15.90;99.90;;;;;;4989768;28;20298;-58
2023/05/30 00:47:36;;;;;;;5.10;4.70;;;15.80;99.90;;;;;;4984612;28;20215;-57
2023/05/30 00:50:04;;;;;;;4.87;4.47;;;15.70;99.90;;;;;;4990458;28;20304;-58
2023/05/30 00:52:31;;;;;;;4.37;4.03;;;15.70;99.90;;;;;;4988991;28;20231;-58
2023/05/30 00:55:03;;;;;;;4.40;4.10;;;15.60;99.90;;;;;;4989737;28;20255;-58
2023/05/30 00:57:33;;;;;;;5.90;5.30;;;15.60;99.90;;;;;;4989563;28;20195;-58
2023/05/30 01:00:02;;;;;;;4.90;4.47;;;15.60;99.90;;;;;;4989540;28;20314;-57
2023/05/30 01:02:33;;;;;;;3.97;3.67;;;15.60;99.90;;;;;;4980345;28;20207;-58
2023/05/30 01:05:01;;;;;;;6.73;4.57;;;15.50;99.90;;;;;;4989352;28;20291;-58
2023/05/30 01:07:28;;;;;;;8.27;4.47;;;15.50;99.90;;;;;;4982888;28;20220;-57
2023/05/30 01:09:55;;;;;;;4.97;4.37;;;15.50;99.90;;;;;;4988073;28;20227;-58
2023/05/30 01:12:33;;;;;;;4.87;4.33;;;15.40;99.90;;;;;;4988663;28;20609;-57
2023/05/30 01:15:07;;;;;;;5.57;4.23;;;15.40;99.90;;;;;;4986031;28;20250;-58
2023/05/30 01:17:45;;;;;;;5.57;5.07;;;15.50;99.90;;;;;;4986338;28;20212;-58
2023/05/30 01:20:14;;;;;;;5.00;4.17;;;15.50;99.90;;;;;;4990466;28;20674;-57
2023/05/30 01:23:09;;;;;;;4.70;4.30;;;15.50;99.90;;;;;;4990993;28;20736;-58
2023/05/30 01:25:53;;;;;;;5.03;4.63;;;15.50;99.90;;;;;;4985329;28;20598;-57
2023/05/30 01:28:23;;;;;;;5.37;4.97;;;15.30;99.90;;;;;;4986821;28;20291;-57
2023/05/30 01:30:52;;;;;;;5.27;4.87;;;15.20;99.90;;;;;;4991834;28;20270;-57
2023/05/30 01:33:21;;;;;;;7.73;6.03;;;15.10;99.90;;;;;;4989952;28;20204;-57
2023/05/30 01:35:48;;;;;;;5.03;3.77;;;15.00;99.90;;;;;;4990531;28;20204;-58
2023/05/30 01:38:16;;;;;;;4.90;4.50;;;15.00;99.90;;;;;;4992262;28;20302;-58
2023/05/30 01:40:47;;;;;;;4.63;4.23;;;14.90;99.90;;;;;;4992479;28;20590;-57
2023/05/30 01:43:21;;;;;;;4.50;4.20;;;15.00;99.90;;;;;;4988008;28;20203;-57
2023/05/30 01:45:56;;;;;;;4.83;4.40;;;15.10;99.90;;;;;;4993603;28;20265;-57
2023/05/30 01:48:30;;;;;;;5.60;4.33;;;15.00;99.90;;;;;;4993568;28;20648;-57
2023/05/30 01:51:00;;;;;;;4.87;4.37;;;15.00;99.90;;;;;;4990415;28;20687;-57
2023/05/30 01:53:32;;;;;;;5.57;4.97;;;14.90;99.90;;;;;;4992089;28;20197;-57
2023/05/30 01:56:01;;;;;;;4.27;3.97;;;14.90;99.90;;;;;;4991274;28;20339;-57
2023/05/30 01:58:30;;;;;;;5.03;4.63;;;14.80;99.90;;;;;;4993117;28;20287;-57
2023/05/30 02:01:00;;;;;;;5.17;4.13;;;14.80;99.90;;;;;;4990017;28;20235;-57
2023/05/30 02:03:30;;;;;;;5.37;4.70;;;14.90;99.90;;;;;;4986821;28;20207;-57
2023/05/30 02:05:57;;;;;;;6.33;4.83;;;14.70;99.90;;;;;;4993260;28;20196;-57
2023/05/30 02:08:24;;;;;;;4.70;4.30;;;14.50;99.90;;;;;;4992175;28;20204;-57
2023/05/30 02:10:50;;;;;;;4.93;4.53;;;14.50;99.90;;;;;;4992859;28;20640;-57
2023/05/30 02:13:18;;;;;;;4.80;4.40;;;14.50;99.90;;;;;;4991804;28;20914;-57
2023/05/30 02:15:45;;;;;;;7.83;4.60;;;14.50;99.90;;;;;;4991716;28;20622;-57
2023/05/30 02:18:14;;;;;;;4.40;4.00;;;14.50;99.90;;;;;;4992701;28;20338;-57
2023/05/30 02:20:40;;;;;;;4.70;4.17;;;14.50;99.90;;;;;;4992703;28;20322;-57
2023/05/30 02:23:07;;;;;;;6.80;4.83;;;14.50;99.90;;;;;;4991834;28;20200;-58
2023/05/30 02:25:35;;;;;;;4.87;4.20;;;14.60;99.90;;;;;;4991012;28;20250;-58
2023/05/30 02:28:02;;;;;;;6.70;5.83;;;14.60;99.90;;;;;;4992406;28;20204;-57
2023/05/30 02:30:28;;;;;;;5.50;4.27;;;14.60;99.90;;;;;;4991546;28;20286;-57
2023/05/30 02:32:55;;;;;;;4.87;4.33;;;14.50;99.90;;;;;;4989537;28;20203;-57
2023/05/30 02:35:24;;;;;;;6.97;4.40;;;14.40;99.90;;;;;;4985537;28;20204;-57
2023/05/30 02:37:51;;;;;;;6.43;4.60;;;14.30;99.90;;;;;;4984507;28;20307;-57
2023/05/30 02:40:18;;;;;;;5.07;4.67;;;14.30;99.90;;;;;;4992033;28;20753;-57
2023/05/30 02:42:45;;;;;;;3.83;3.57;;;14.20;99.90;;;;;;4992168;28;20270;-57
2023/05/30 02:45:12;;;;;;;7.33;4.10;;;14.20;99.90;;;;;;4990598;28;20212;-59
2023/05/30 02:47:39;;;;;;;4.73;4.33;;;14.10;99.90;;;;;;4990088;28;20636;-57
2023/05/30 02:50:07;;;;;;;6.10;3.67;;;14.10;99.90;;;;;;4990828;28;20764;-57
2023/05/30 02:52:36;;;;;;;8.83;4.10;;;14.10;99.90;;;;;;4991079;28;20245;-57
2023/05/30 02:55:03;;;;;;;6.40;4.10;;;14.10;99.90;;;;;;4992168;28;20204;-57
2023/05/30 02:57:30;;;;;;;5.53;5.07;;;14.00;99.90;;;;;;4992010;28;20650;-57
2023/05/30 02:59:57;;;;;;;3.67;3.37;;;14.00;99.90;;;;;;4992031;28;20698;-57
2023/05/30 03:02:24;;;;;;;4.13;3.67;;;13.90;99.90;;;;;;4990699;28;20258;-57
2023/05/30 03:04:51;;;;;;;4.40;3.53;;;13.90;99.90;;;;;;4982258;28;20256;-57
2023/05/30 03:07:18;;;;;;;5.80;3.93;;;13.90;99.90;;;;;;4984475;28;20282;-57
2023/05/30 03:09:46;;;;;;;5.13;4.67;;;13.90;99.90;;;;;;4991710;28;20235;-57
2023/05/30 03:12:13;;;;;;;4.07;3.50;;;13.80;99.90;;;;;;4990287;28;20207;-59
2023/05/30 03:14:40;;;;;;;4.67;3.93;;;13.80;99.90;;;;;;4990310;28;20207;-57
2023/05/30 03:17:09;;;;;;;6.97;4.87;;;13.80;99.90;;;;;;4990901;28;20228;-57
2023/05/30 03:19:36;;;;;;;4.87;4.47;;;13.70;99.90;;;;;;4990505;28;20313;-57
2023/05/30 03:22:07;;;;;;;5.07;4.67;;;13.70;99.90;;;;;;4989691;28;20200;-57
2023/05/30 03:24:34;;;;;;;4.40;4.07;;;13.80;99.90;;;;;;4991409;28;20812;-57
2023/05/30 03:27:02;;;;;;;4.47;3.70;;;13.80;99.90;;;;;;4985463;28;20204;-57
2023/05/30 03:29:29;;;;;;;6.13;4.43;;;13.70;99.90;;;;;;4991248;28;20219;-57
2023/05/30 03:31:56;;;;;;;7.53;4.50;;;13.70;99.90;;;;;;4991133;28;20294;-57
2023/05/30 03:34:24;;;;;;;6.17;5.03;;;13.60;99.90;;;;;;4991359;28;20262;-57
2023/05/30 03:36:52;;;;;;;5.27;4.87;;;13.60;99.90;;;;;;4980954;28;20200;-57
2023/05/30 03:39:19;;;;;;;4.47;4.07;;;13.60;99.90;;;;;;4984978;28;20601;-57
2023/05/30 03:41:46;;;;;;;5.67;4.20;;;13.60;99.90;;;;;;4988395;28;20290;-57
2023/05/30 03:44:14;;;;;;;10.70;4.50;;;13.60;99.90;;;;;;4991167;28;20262;-57
2023/05/30 03:46:41;;;;;;;5.60;4.80;;;13.50;99.90;;;;;;4991206;28;20210;-58
2023/05/30 03:49:08;;;;;;;8.20;4.77;;;13.50;99.90;;;;;;4990788;28;20297;-57
2023/05/30 03:51:36;;;;;;;7.40;4.70;;;13.50;99.90;;;;;;4986728;28;20212;-57
2023/05/30 03:54:03;;;;;;;4.80;4.37;;;13.50;99.90;;;;;;4988790;28;20215;-57
2023/05/30 03:56:30;;;;;;;4.20;3.77;;;13.60;99.90;;;;;;4989961;28;20705;-57
2023/05/30 03:58:57;;;;;;;5.13;4.63;;;13.70;99.90;;;;;;4990817;28;20208;-57
2023/05/30 04:01:25;;;;;;;5.00;4.43;;;13.90;99.90;;;;;;4989598;28;20301;-57
2023/05/30 04:03:52;;;;;;;7.33;4.17;;;14.00;99.90;;;;;;4982223;28;20203;-57
2023/05/30 04:06:19;;;;;;;4.67;4.07;;;14.00;99.90;;;;;;4989680;28;20208;-57
2023/05/30 04:08:46;;;;;;;4.87;4.47;;;14.00;99.90;;;;;;4989625;28;20262;-57
2023/05/30 04:11:13;;;;;;;5.37;4.53;;;14.00;99.90;;;;;;4990780;28;20725;-57
2023/05/30 04:13:40;;;;;;;5.17;4.67;;;14.00;99.90;;;;;;4990462;28;20646;-57
2023/05/30 04:16:07;;;;;;;6.63;4.20;;;13.90;99.90;;;;;;4990831;28;20258;-57
2023/05/30 04:18:36;;;;;;;8.83;5.00;;;14.00;99.90;;;;;;4990866;28;20204;-57
2023/05/30 04:21:03;;;;;;;5.07;4.57;;;14.00;99.90;;;;;;4988587;28;20318;-57
2023/05/30 04:23:30;;;;;;;6.60;4.50;;;14.00;99.90;;;;;;4987589;28;20235;-57
2023/05/30 04:25:57;;;;;;;4.37;3.93;;;14.10;99.90;;;;;;4989253;28;20204;-57
2023/05/30 04:28:24;;;;;;;4.80;4.30;;;14.20;99.90;;;;;;4990770;28;20678;-57
2023/05/30 04:30:54;;;;;;;4.77;4.00;;;14.20;99.90;;;;;;4991140;28;20228;-57
2023/05/30 04:33:21;;;;;;;5.67;4.63;;;14.20;99.90;;;;;;4990418;28;20231;-57
2023/05/30 04:35:50;;;;;;;5.73;5.17;;;14.30;99.90;;;;;;4979939;28;20212;-57
2023/05/30 04:38:19;;;;;;;5.60;4.63;;;14.50;99.90;;;;;;4978433;28;20209;-57
2023/05/30 04:40:49;;;;;;;5.57;4.57;;;14.70;99.90;;;;;;4978750;28;20654;-57
2023/05/30 04:43:19;;;;;;;5.80;4.60;;;14.90;99.90;;;;;;4990360;28;20682;-57
2023/05/30 04:45:49;;;;;;;8.90;4.90;;;15.00;99.90;;;;;;4990615;28;20521;-57
2023/05/30 04:48:16;;;;;;;4.33;3.93;;;15.10;99.90;;;;;;4983713;28;20205;-57
2023/05/30 04:50:46;;;;;;;7.67;5.47;;;15.10;99.90;;;;;;4986691;28;20251;-58
2023/05/30 04:53:15;;;;;;;6.10;4.23;;;15.10;99.90;;;;;;4990809;28;20196;-58
2023/05/30 04:55:43;;;;;;;4.47;4.17;;;15.20;99.90;;;;;;4979573;28;20331;-58
2023/05/30 04:58:10;;;;;;;5.93;4.90;;;15.30;99.90;;;;;;4993164;28;20234;-58
2023/05/30 05:00:38;;;;;;;4.53;4.10;;;15.30;99.90;;;;;;4994196;28;20223;-58
2023/05/30 05:03:06;;;;;;;6.47;4.77;;;15.40;99.90;;;;;;4984807;28;20567;-58
2023/05/30 05:05:33;;;;;;;6.17;5.60;;;15.50;99.90;;;;;;4994080;28;20511;-58
2023/05/30 05:08:00;;;;;;;5.60;5.20;;;15.40;99.90;;;;;;4994256;28;20223;-58
2023/05/30 05:10:29;;;;;;;5.23;4.47;;;15.30;99.90;;;;;;4993874;28;20234;-58
2023/05/30 05:12:56;;;;;;;7.03;4.77;;;15.30;99.90;;;;;;4993286;28;20255;-59
2023/05/30 05:15:23;;;;;;;4.13;3.83;;;15.30;99.90;;;;;;4989665;28;20204;-58
2023/05/30 05:17:51;;;;;;;4.10;3.80;;;15.40;99.90;;;;;;4989437;28;20204;-58
2023/05/30 05:20:18;;;;;;;5.67;4.83;;;15.60;99.90;;;;;;4982899;28;20597;-59
2023/05/30 05:22:45;;;;;;;4.87;4.47;;;15.80;99.90;;;;;;4988864;28;20626;-58
2023/05/30 05:25:12;;;;;;;6.43;4.53;;;15.90;99.90;;;;;;4991959;28;20262;-58
2023/05/30 05:27:42;;;;;;;5.97;4.60;;;16.00;99.90;;;;;;4985537;28;20196;-59
2023/05/30 05:30:11;;;;;;;5.00;4.57;;;16.00;99.90;;;;;;4992221;28;20310;-58
2023/05/30 05:32:38;;;;;;;5.90;4.87;;;16.20;99.90;;;;;;4992017;28;20200;-58
2023/05/30 05:35:08;;;;;;;5.03;4.60;;;16.20;99.90;;;;;;4985734;28;20667;-58
2023/05/30 05:37:35;;;;;;;6.57;5.10;;;16.30;99.90;;;;;;4993432;28;20370;-58
2023/05/30 05:40:05;;;;;;;16.30;4.83;;;16.30;99.90;;;;;;4991687;28;20249;-58
2023/05/30 05:42:32;;;;;;;5.47;4.97;;;16.50;99.90;;;;;;4990278;28;20200;-58
2023/05/30 05:45:01;;;;;;;4.97;4.23;;;16.80;99.90;;;;;;4992399;28;20267;-58
2023/05/30 05:47:28;;;;;;;10.00;3.70;;;17.10;99.90;;;;;;4986907;28;20204;-59
2023/05/30 05:49:55;;;;;;;6.47;4.13;;;17.60;99.90;;;;;;4990047;28;20284;-59
2023/05/30 05:52:22;;;;;;;5.07;4.57;;;18.00;99.90;;;;;;4989481;28;20465;-58
2023/05/30 05:54:49;;;;;;;8.70;4.70;;;18.50;99.90;;;;;;4992792;28;20585;-59
2023/05/30 05:57:16;;;;;;;5.50;4.47;;;18.80;99.90;;;;;;4993004;28;20595;-58
2023/05/30 05:59:43;;;;;;;4.90;4.03;;;19.70;99.90;;;;;;4992876;28;20678;-59
2023/05/30 06:02:12;;;;;;;5.90;4.53;;;19.60;99.90;;;;;;4992435;28;20672;-68
2023/05/30 06:04:39;;;;;;;4.77;4.03;;;20.40;99.90;;;;;;4977082;28;20292;-64
2023/05/30 06:07:08;;;;;;;5.60;4.30;;;20.80;99.90;;;;;;4991126;28;20212;-66
2023/05/30 06:09:36;;;;;;;5.57;3.93;;;20.80;99.90;;;;;;5028301;23;21322;-67
2023/05/30 06:12:03;;;;;;;5.07;4.40;;;20.30;99.90;;;;;;5007753;28;20239;-67
2023/05/30 06:14:30;;;;;;;4.30;3.90;;;20.30;99.90;;;;;;5008504;28;20289;-65
2023/05/30 06:16:57;;;;;;;6.03;4.53;;;21.10;99.90;;;;;;5008359;28;20321;-55
2023/05/30 06:19:25;;;;;;;6.63;3.70;;;21.30;99.90;;;;;;5008343;28;20267;-55
2023/05/30 06:21:52;;;;;;;5.43;4.93;;;21.80;99.90;;;;;;5009126;28;20301;-55
2023/05/30 06:24:19;;;;;;;8.60;4.57;;;22.50;99.90;;;;;;5006597;28;20195;-54
2023/05/30 06:26:46;;;;;;;4.97;4.43;;;22.90;99.90;;;;;;5012453;28;20203;-54
2023/05/30 06:29:13;;;;;;;5.83;4.20;;;23.30;99.90;;;;;;5011804;28;20257;-54
2023/05/30 06:31:40;;;;;;;5.07;4.60;;;23.60;99.90;;;;;;5010504;28;20203;-55
2023/05/30 06:34:07;;;;;;;4.83;4.43;;;23.10;99.90;;;;;;5011986;28;20195;-54
2023/05/30 06:36:36;;;;;;;4.90;4.43;;;23.10;99.90;;;;;;5010309;28;20290;-55
2023/05/30 06:39:03;;;;;;;5.60;4.77;;;23.30;99.90;;;;;;5006850;28;20211;-54
2023/05/30 06:41:30;;;;;;;5.23;4.03;;;23.30;99.90;;;;;;5010608;28;20278;-55
2023/05/30 06:43:57;;;;;;;4.63;3.90;;;23.80;99.90;;;;;;5011746;28;20203;-54
2023/05/30 06:46:24;;;;;;;5.23;4.60;;;23.90;99.90;;;;;;5010937;28;20797;-54
2023/05/30 06:48:50;;;;;;;6.00;4.63;;;23.50;99.90;;;;;;5011565;28;20250;-54
2023/05/30 06:51:17;;;;;;;6.10;4.13;;;23.70;99.90;;;;;;5011844;28;20732;-54
2023/05/30 06:53:46;;;;;;;13.93;4.20;;;23.90;99.90;;;;;;5011374;28;20203;-54
2023/05/30 06:56:13;;;;;;;5.37;4.97;;;24.60;99.90;;;;;;5011806;28;20262;-54
2023/05/30 06:58:40;;;;;;;6.77;4.50;;;23.60;99.90;;;;;;4998264;28;20329;-54
2023/05/30 07:01:07;;;;;;;4.93;4.30;;;23.80;99.90;;;;;;5003331;28;20231;-54
2023/05/30 07:03:33;;;;;;;5.70;4.63;;;24.50;99.90;;;;;;5011261;28;20211;-54
2023/05/30 07:06:01;;;;;;;5.90;4.40;;;24.50;99.90;;;;;;5006198;28;20203;-55
2023/05/30 07:08:28;;;;;;;6.57;4.40;;;24.20;99.90;;;;;;5006230;28;20199;-54
2023/05/30 07:10:56;;;;;;;4.63;4.07;;;24.00;99.90;;;;;;5011389;28;20231;-54
2023/05/30 07:13:23;;;;;;;4.60;4.20;;;23.60;99.90;;;;;;5004455;28;20278;-54
2023/05/30 07:15:50;;;;;;;5.70;4.83;;;23.90;99.90;;;;;;5006942;28;20632;-55
2023/05/30 07:18:17;;;;;;;4.17;3.87;;;23.50;99.90;;;;;;5011343;28;20250;-56
2023/05/30 07:20:44;;;;;;;5.13;4.40;;;23.80;99.90;;;;;;5011256;28;20369;-55
2023/05/30 07:23:10;;;;;;;5.00;4.60;;;24.30;99.90;;;;;;5011239;28;20207;-55
2023/05/30 07:25:37;;;;;;;4.83;4.17;;;24.80;99.90;;;;;;5010200;28;20529;-54
2023/05/30 07:28:06;;;;;;;4.33;4.03;;;25.50;99.90;;;;;;5005753;28;20285;-55
2023/05/30 07:30:33;;;;;;;5.37;4.60;;;25.30;99.90;;;;;;5010997;28;20359;-55
2023/05/30 07:32:59;;;;;;;5.13;4.63;;;25.30;99.90;;;;;;5009099;28;20203;-55
2023/05/30 07:35:26;;;;;;;7.40;4.57;;;25.50;99.70;;;;;;4993059;28;20565;-55
2023/05/30 07:37:54;;;;;;;4.57;4.33;;;25.30;99.90;;;;;;5000174;28;20269;-54
2023/05/30 07:40:21;;;;;;;4.37;4.07;;;25.20;99.90;;;;;;5004639;28;20243;-54
2023/05/30 07:42:47;;;;;;;9.53;4.03;;;24.70;99.90;;;;;;5010828;28;20219;-55
2023/05/30 07:45:18;;;;;;;5.37;4.87;;;25.30;99.90;;;;;;5008768;28;20199;-55
2023/05/30 07:47:44;;;;;;;4.90;4.27;;;25.20;99.90;;;;;;4991637;28;20208;-54
2023/05/30 07:50:12;;;;;;;5.73;4.40;;;24.70;99.90;;;;;;4991146;28;20236;-54
2023/05/30 07:52:38;;;;;;;4.60;4.20;;;25.10;99.90;;;;;;4996491;28;20208;-54
2023/05/30 07:55:06;;;;;;;4.93;4.43;;;24.90;99.90;;;;;;5008732;28;20544;-54
2023/05/30 07:57:33;;;;;;;4.90;4.43;;;25.00;99.90;;;;;;5002797;28;20203;-55
2023/05/30 08:00:00;;;;;;;5.27;4.93;;;25.20;99.90;;;;;;5008539;28;20697;-55
2023/05/30 08:02:28;;;;;;;7.93;4.30;;;25.70;99.40;;;;;;5010564;28;20207;-55
2023/05/30 08:04:57;;;;;;;5.30;4.20;;;26.10;99.90;;;;;;5006858;28;20203;-55
2023/05/30 08:07:24;;;;;;;5.03;4.57;;;26.70;99.80;;;;;;5003676;28;20230;-55
2023/05/30 08:09:50;;;;;;;6.10;5.53;;;27.50;97.70;;;;;;5010563;28;20227;-55
2023/05/30 08:12:19;;;;;;;6.00;5.47;;;27.50;97.80;;;;;;5010181;28;20215;-55
2023/05/30 08:14:47;;;;;;;3.77;3.43;;;28.20;97.20;;;;;;5010715;28;20317;-55
2023/05/30 08:17:16;;;;;;;5.47;4.80;;;27.70;97.40;;;;;;5010699;28;20198;-55
2023/05/30 08:19:44;;;;;;;4.73;4.33;;;27.80;96.10;;;;;;5001171;28;20306;-56
2023/05/30 08:22:12;;;;;;;4.60;4.20;;;27.40;97.50;;;;;;5010395;28;20251;-55
2023/05/30 08:24:41;;;;;;;5.30;4.90;;;26.50;98.60;;;;;;5010732;28;20280;-55
2023/05/30 08:27:10;;;;;;;5.90;4.43;;;26.50;97.80;;;;;;5009997;28;20249;-54
2023/05/30 08:29:40;;;;;;;7.50;4.67;;;26.10;98.60;;;;;;5010852;28;20237;-54
2023/05/30 08:32:09;;;;;;;4.93;4.13;;;25.40;97.90;;;;;;5009856;28;20241;-54
2023/05/30 08:34:36;;;;;;;4.43;4.13;;;25.50;97.80;;;;;;5002747;28;20202;-55
2023/05/30 08:37:08;;;;;;;5.73;5.23;;;25.00;98.40;;;;;;5010812;28;20203;-54
2023/05/30 08:39:35;;;;;;;4.80;4.40;;;24.60;98.70;;;;;;5009037;28;20634;-55
2023/05/30 08:42:03;;;;;;;6.47;4.57;;;24.80;97.60;;;;;;5008984;28;20215;-55
2023/05/30 08:44:30;;;;;;;4.77;4.33;;;24.70;98.70;;;;;;4994884;28;20278;-55
2023/05/30 08:46:57;;;;;;;5.20;4.70;;;25.10;97.90;;;;;;5004900;28;20213;-55
2023/05/30 08:49:25;;;;;;;5.10;4.33;;;25.10;98.20;;;;;;5006923;28;20223;-55
2023/05/30 08:51:53;;;;;;;3.90;3.60;;;25.00;98.10;;;;;;5010518;28;20232;-55
2023/05/30 08:54:23;;;;;;;6.83;4.77;;;25.20;97.80;;;;;;5010045;28;20207;-55
2023/05/30 08:56:55;;;;;;;4.67;4.27;;;26.00;97.20;;;;;;5009857;28;20265;-56
2023/05/30 08:59:26;;;;;;;5.97;5.37;;;26.80;98.10;;;;;;5008709;28;20195;-55
2023/05/30 09:01:54;;;;;;;5.07;4.70;;;27.30;95.40;;;;;;5007306;28;20218;-55
2023/05/30 09:04:23;;;;;;;7.03;4.10;;;27.50;95.60;;;;;;5008219;28;20661;-55
2023/05/30 09:06:54;;;;;;;3.97;3.77;;;27.30;95.90;;;;;;5010140;28;20199;-55
2023/05/30 09:09:23;;;;;;;8.53;4.90;;;27.50;95.50;;;;;;5010301;28;20239;-55
2023/05/30 09:11:52;;;;;;;5.23;4.17;;;27.60;94.50;;;;;;5008121;28;20661;-54
2023/05/30 09:14:19;;;;;;;5.80;5.20;;;27.90;95.30;;;;;;5001510;28;20235;-55
2023/05/30 09:16:46;;;;;;;7.10;5.00;;;27.40;94.70;;;;;;5009359;28;20207;-55
2023/05/30 09:19:13;;;;;;;4.47;4.10;;;26.90;94.50;;;;;;5009958;28;20597;-55
2023/05/30 09:21:41;;;;;;;5.17;4.67;;;27.60;95.40;;;;;;5010303;28;20258;-55
2023/05/30 09:24:08;;;;;;;5.00;4.50;;;27.20;94.90;;;;;;5010057;28;20627;-55
2023/05/30 09:26:36;;;;;;;6.53;5.17;;;26.70;94.80;;;;;;5001561;28;20255;-55
2023/05/30 09:29:10;;;;;;;6.77;5.30;;;26.60;97.20;;;;;;5009664;28;20195;-55
2023/05/30 09:31:38;;;;;;;6.17;5.53;;;26.40;96.10;;;;;;5010155;28;20239;-55
2023/05/30 09:34:06;;;;;;;6.23;4.83;;;27.10;95.40;;;;;;5010182;28;20290;-55
2023/05/30 09:36:33;;;;;;;5.23;4.73;;;26.80;95.30;;;;;;5010004;28;20211;-55
2023/05/30 09:39:04;;;;;;;6.40;5.10;;;27.20;94.90;;;;;;5009963;28;20266;-55
2023/05/30 09:41:30;;;;;;;5.23;4.73;;;27.20;95.20;;;;;;5012956;28;20265;-55
2023/05/30 09:43:59;;;;;;;5.07;4.67;;;27.60;95.50;;;;;;5010055;28;20903;-55
2023/05/30 09:46:28;;;;;;;4.40;4.10;;;27.70;95.60;;;;;;5011259;28;20203;-55
2023/05/30 09:48:56;;;;;;;6.53;4.37;;;27.80;96.00;;;;;;5013092;28;20234;-55
2023/05/30 09:51:25;;;;;;;5.07;4.55;;;28.00;96.00;;;;;;5013256;28;20747;-55
2023/05/30 09:53:57;;;;;;;5.50;4.60;;;28.00;95.60;;;;;;5003862;28;20926;-55
2023/05/30 09:56:38;;;;;;;5.90;5.10;;;27.60;96.20;;;;;;5013376;28;20202;-55
2023/05/30 09:59:08;;;;;;;10.03;5.43;;;27.50;95.90;;;;;;5013354;28;20203;-55
2023/05/30 10:01:39;;;;;;;7.37;3.50;;;27.50;95.10;;;;;;5013118;28;20227;-55
2023/05/30 10:04:13;;;;;;;6.03;5.50;;;28.30;95.60;;;;;;5008892;28;20290;-55
2023/05/30 10:06:42;;;;;;;5.80;5.07;;;28.70;96.20;;;;;;5009413;28;20199;-55
2023/05/30 10:09:09;;;;;;;7.87;3.93;;;28.40;94.50;;;;;;5012908;28;20214;-55
2023/05/30 10:11:38;;;;;;;8.47;5.13;;;28.30;95.60;;;;;;5012811;28;20304;-55
2023/05/30 10:14:07;;;;;;;5.05;4.60;;;28.00;95.70;;;;;;5012481;28;20199;-55
2023/05/30 10:16:36;;;;;;;3.73;3.63;;;27.90;95.50;;;;;;5010903;28;20293;-55
2023/05/30 10:19:05;;;;;;;4.88;4.47;;;28.10;98.30;;;;;;5004632;28;20203;-55
2023/05/30 10:21:37;;;;;;;4.45;4.05;;;27.60;94.90;;;;;;5012751;28;20223;-55
2023/05/30 10:24:05;;;;;;;5.90;4.70;;;27.90;95.50;;;;;;5012566;28;20203;-55
2023/05/30 10:26:36;;;;;;;4.57;4.05;;;28.30;96.40;;;;;;5012655;28;20277;-55
2023/05/30 10:29:09;;;;;;;4.28;3.97;;;28.30;96.40;;;;;;5012670;28;20569;-55
2023/05/30 10:31:37;;;;;;;8.50;4.43;;;28.20;95.20;;;;;;5004138;28;20242;-55
2023/05/30 10:34:08;;;;;;;5.03;3.67;;;28.10;95.60;;;;;;5012144;28;20195;-55
2023/05/30 10:36:35;;;;;;;5.47;4.97;;;27.60;95.40;;;;;;5012594;28;20277;-55
2023/05/30 10:39:14;;;;;;;5.07;4.67;;;27.60;96.90;;;;;;5012575;28;20605;-54
2023/05/30 10:41:47;;;;;;;5.00;4.57;;;27.10;96.30;;;;;;5012611;28;20207;-55
2023/05/30 10:44:28;;;;;;;4.53;3.70;;;27.60;98.10;;;;;;5011413;28;20195;-56
2023/05/30 10:47:07;;;;;;;5.35;4.90;;;28.30;97.60;;;;;;5010368;28;20199;-55
2023/05/30 10:49:35;;;;;;;5.67;5.30;;;28.70;94.20;;;;;;5012059;28;20227;-55
2023/05/30 10:52:04;;;;;;;4.53;4.23;;;28.20;95.00;;;;;;5011517;28;20238;-55
2023/05/30 10:54:32;;;;;;;4.47;4.07;;;27.80;97.20;;;;;;5011314;28;20203;-54
2023/05/30 10:57:00;;;;;;;5.07;4.40;;;27.90;96.00;;;;;;5003987;28;20244;-54
2023/05/30 10:59:28;;;;;;;4.87;4.10;;;27.50;96.70;;;;;;5012081;28;20305;-54
2023/05/30 11:02:02;;;;;;;5.37;4.87;;;27.30;97.30;;;;;;5011923;28;20227;-54
2023/05/30 11:04:32;;;;;;;4.10;3.90;;;26.90;98.60;;;;;;5011999;28;20297;-54
2023/05/30 11:06:59;;;;;;;4.53;4.23;;;26.60;98.30;;;;;;5012334;28;20211;-54
2023/05/30 11:09:27;;;;;;;6.33;4.47;;;26.80;99.20;;;;;;5004219;28;20206;-55
2023/05/30 11:11:58;;;;;;;5.57;4.57;;;26.70;97.30;;;;;;5009818;28;20199;-54
2023/05/30 11:14:29;;;;;;;6.67;4.47;;;26.50;98.10;;;;;;5011996;28;20365;-54
2023/05/30 11:17:01;;;;;;;4.87;4.23;;;26.50;98.70;;;;;;5012108;28;20502;-54
2023/05/30 11:19:35;;;;;;;5.57;4.43;;;26.70;98.70;;;;;;5011901;28;20203;-55
2023/05/30 11:22:03;;;;;;;4.43;3.93;;;26.70;99.20;;;;;;5007606;28;20227;-54
2023/05/30 11:24:31;;;;;;;4.73;3.80;;;26.40;97.20;;;;;;5005064;28;20270;-54
2023/05/30 11:27:01;;;;;;;5.57;4.00;;;26.10;99.00;;;;;;5001267;28;20204;-54
2023/05/30 11:29:35;;;;;;;7.60;4.43;;;25.60;98.10;;;;;;5004477;28;20650;-54
2023/05/30 11:32:02;;;;;;;6.03;4.57;;;25.80;99.60;;;;;;5011018;28;20202;-54
2023/05/30 11:34:29;;;;;;;5.30;4.90;;;25.40;98.10;;;;;;5011800;28;20199;-54
2023/05/30 11:36:57;;;;;;;5.30;3.90;;;24.80;99.90;;;;;;5011611;28;20213;-54
2023/05/30 11:39:25;;;;;;;4.60;3.93;;;25.10;99.90;;;;;;5010506;28;20691;-54
2023/05/30 11:41:52;;;;;;;5.17;4.77;;;25.60;99.90;;;;;;5010729;28;20274;-54
2023/05/30 11:44:20;;;;;;;4.37;3.97;;;25.60;99.20;;;;;;5003080;28;20628;-54
2023/05/30 11:47:00;;;;;;;6.53;4.23;;;25.70;99.90;;;;;;5011475;28;20743;-55
2023/05/30 11:49:27;;;;;;;5.37;4.87;;;25.70;99.40;;;;;;5011321;28;20202;-54
2023/05/30 11:51:54;;;;;;;5.80;4.37;;;25.30;98.90;;;;;;5011564;28;20203;-54
2023/05/30 11:54:21;;;;;;;4.80;4.43;;;25.20;99.30;;;;;;5011106;28;20669;-54
2023/05/30 11:56:50;;;;;;;6.23;4.20;;;25.30;99.90;;;;;;5002501;28;20204;-55
2023/05/30 11:59:19;;;;;;;4.57;4.23;;;25.60;98.60;;;;;;5010968;28;20198;-54
2023/05/30 12:01:55;;;;;;;4.30;4.10;;;25.80;99.00;;;;;;5011046;28;20401;-54
2023/05/30 12:04:25;;;;;;;5.93;4.23;;;25.60;99.70;;;;;;5011232;28;20198;-55
2023/05/30 12:06:52;;;;;;;5.73;4.23;;;25.60;99.90;;;;;;5011341;28;20207;-54
2023/05/30 12:09:20;;;;;;;4.17;3.80;;;25.60;99.50;;;;;;5010909;28;20677;-55
2023/05/30 12:11:55;;;;;;;5.27;4.87;;;25.50;97.10;;;;;;5018278;22;20238;-57
2023/05/30 12:14:37;;;;;;;7.97;4.77;;;25.30;98.70;;;;;;4987369;28;20205;-57
2023/05/30 12:17:12;;;;;;;3.90;3.70;;;25.40;99.00;;;;;;4995107;28;20200;-57
2023/05/30 12:19:41;;;;;;;4.17;3.80;;;25.20;97.60;;;;;;5007837;28;20198;-57
2023/05/30 12:22:09;;;;;;;4.07;3.70;;;25.40;99.90;;;;;;5011186;28;20798;-57
2023/05/30 12:24:37;;;;;;;4.53;4.13;;;25.40;99.30;;;;;;5011479;28;20206;-57
2023/05/30 12:27:05;;;;;;;7.90;4.73;;;25.50;98.40;;;;;;5007932;28;20203;-56
2023/05/30 12:29:33;;;;;;;6.73;4.50;;;25.60;98.80;;;;;;4997565;28;20258;-56
2023/05/30 12:32:01;;;;;;;3.80;3.60;;;25.40;96.70;;;;;;5002311;28;20219;-57
2023/05/30 12:34:46;;;;;;;7.23;5.43;;;25.30;97.10;;;;;;5007207;28;20255;-57
2023/05/30 12:37:15;;;;;;;4.40;4.10;;;25.50;98.80;;;;;;4990047;28;20294;-57
2023/05/30 12:39:53;;;;;;;9.23;5.20;;;25.60;98.80;;;;;;4991971;28;20214;-57
2023/05/30 12:42:22;;;;;;;5.23;4.07;;;25.70;98.10;;;;;;4995957;28;20252;-56
2023/05/30 12:44:50;;;;;;;4.47;4.23;;;25.70;98.50;;;;;;5003087;28;20625;-57
2023/05/30 12:47:17;;;;;;;5.80;4.87;;;25.50;98.20;;;;;;5011288;28;20216;-57
2023/05/30 12:49:46;;;;;;;4.33;4.03;;;25.30;99.10;;;;;;5011168;28;20257;-57
2023/05/30 12:52:14;;;;;;;11.27;4.77;;;25.50;99.00;;;;;;5010762;28;20223;-57